createdAt,value
2023-01-08T00:01:19.369Z,50.50
2023-01-08T00:03:47.383Z,47.38
2023-01-08T00:06:17.756Z,40.45
2023-01-08T00:08:45.560Z,37.67
2023-01-08T00:11:13.989Z,40.33
2023-01-08T00:13:41.583Z,40.07
2023-01-08T00:16:13.615Z,34.60
2023-01-08T00:18:41.565Z,37.88
2023-01-08T00:21:09.145Z,41.10
2023-01-08T00:23:37.249Z,35.88
2023-01-08T00:26:07.503Z,36.20
2023-01-08T00:28:35.907Z,41.00
2023-01-08T00:31:04.962Z,38.22
2023-01-08T00:33:32.872Z,36.55
2023-01-08T00:36:00.952Z,41.88
2023-01-08T00:38:29.489Z,33.90
2023-01-08T00:40:57.523Z,35.67
2023-01-08T00:43:25.083Z,38.72
2023-01-08T00:45:53.911Z,33.33
2023-01-08T00:48:22.558Z,35.47
2023-01-08T00:50:50.172Z,36.40
2023-01-08T00:53:18.925Z,34.33
2023-01-08T00:55:46.945Z,35.10
2023-01-08T00:58:15.237Z,35.47
2023-01-08T01:00:42.788Z,35.80
2023-01-08T01:03:10.797Z,36.33
2023-01-08T01:05:38.434Z,34.47
2023-01-08T01:08:06.084Z,36.10
2023-01-08T01:10:33.886Z,33.90
2023-01-08T01:13:01.451Z,36.85
2023-01-08T01:15:28.901Z,35.30
2023-01-08T01:17:57.280Z,31.50
2023-01-08T01:20:25.021Z,34.40
2023-01-08T01:22:52.561Z,33.08
2023-01-08T01:25:20.498Z,33.70
2023-01-08T01:27:48.298Z,36.53
2023-01-08T01:30:16.011Z,33.90
2023-01-08T01:32:43.805Z,34.08
2023-01-08T01:35:11.303Z,36.97
2023-01-08T01:37:39.011Z,37.80
2023-01-08T01:40:07.338Z,39.07
2023-01-08T01:42:40.809Z,38.30
2023-01-08T01:45:23.177Z,38.78
2023-01-08T01:47:58.022Z,38.15
2023-01-08T01:50:48.951Z,35.78
2023-01-08T01:53:27.327Z,37.37
2023-01-08T01:55:55.401Z,36.70
2023-01-08T01:58:27.994Z,38.78
2023-01-08T02:00:58.182Z,41.13
2023-01-08T02:03:29.031Z,36.92
2023-01-08T02:06:04.786Z,37.97
2023-01-08T02:09:08.447Z,37.55
2023-01-08T02:12:18.049Z,37.15
2023-01-08T02:14:59.926Z,37.00
2023-01-08T02:17:53.772Z,38.17
2023-01-08T02:20:32.400Z,40.93
2023-01-08T02:23:18.369Z,42.75
2023-01-08T02:26:04.154Z,35.95
2023-01-08T02:28:34.627Z,35.28
2023-01-08T02:31:02.523Z,35.22
2023-01-08T02:33:30.342Z,39.83
2023-01-08T02:36:47.072Z,36.60
2023-01-08T02:39:33.149Z,39.35
2023-01-08T02:42:17.997Z,44.28
2023-01-08T02:44:54.606Z,40.65
2023-01-08T02:47:28.636Z,36.90
2023-01-08T02:50:11.526Z,44.22
2023-01-08T02:52:50.783Z,37.00
2023-01-08T02:55:19.775Z,41.37
2023-01-08T02:57:47.654Z,39.00
2023-01-08T03:00:15.677Z,39.40
2023-01-08T03:02:43.523Z,37.53
2023-01-08T03:05:23.155Z,41.88
2023-01-08T03:07:51.298Z,39.03
2023-01-08T03:10:22.261Z,38.88
2023-01-08T03:13:02.786Z,44.23
2023-01-08T03:15:37.419Z,36.78
2023-01-08T03:18:10.294Z,42.47
2023-01-08T03:20:38.648Z,33.85
2023-01-08T03:23:09.021Z,39.35
2023-01-08T03:25:40.166Z,36.77
2023-01-08T03:28:14.081Z,35.38
2023-01-08T03:30:42.830Z,35.53
2023-01-08T03:33:12.118Z,36.55
2023-01-08T03:35:42.288Z,34.40
2023-01-08T03:38:17.165Z,34.67
2023-01-08T03:40:48.439Z,35.28
2023-01-08T03:43:16.259Z,33.10
2023-01-08T03:45:49.615Z,32.60
2023-01-08T03:48:19.181Z,36.08
2023-01-08T03:50:47.854Z,33.80
2023-01-08T03:53:15.801Z,34.38
2023-01-08T03:55:43.643Z,36.28
2023-01-08T03:58:11.137Z,31.75
2023-01-08T04:00:39.181Z,31.35
2023-01-08T04:03:06.999Z,35.33
2023-01-08T04:05:34.620Z,38.08
2023-01-08T04:08:02.116Z,36.33
2023-01-08T04:10:29.954Z,36.22
2023-01-08T04:12:57.653Z,38.28
2023-01-08T04:15:25.214Z,34.47
2023-01-08T04:17:53.759Z,35.05
2023-01-08T04:20:21.440Z,33.75
2023-01-08T04:22:48.965Z,36.65
2023-01-08T04:25:16.790Z,36.25
2023-01-08T04:27:44.310Z,36.70
2023-01-08T04:30:12.290Z,38.75
2023-01-08T04:32:40.080Z,39.92
2023-01-08T04:35:08.007Z,39.30
2023-01-08T04:37:35.654Z,38.15
2023-01-08T04:40:04.505Z,40.10
2023-01-08T04:42:32.033Z,40.67
2023-01-08T04:44:59.554Z,37.63
2023-01-08T04:47:27.326Z,36.92
2023-01-08T04:49:54.916Z,43.92
2023-01-08T04:52:22.431Z,42.07
2023-01-08T04:54:50.277Z,41.15
2023-01-08T04:57:17.788Z,42.60
2023-01-08T04:59:45.445Z,40.50
2023-01-08T05:02:13.791Z,38.97
2023-01-08T05:04:41.560Z,43.20
2023-01-08T05:07:09.398Z,37.30
2023-01-08T05:09:41.730Z,38.78
2023-01-08T05:12:09.200Z,42.00
2023-01-08T05:14:36.958Z,43.22
2023-01-08T05:17:04.778Z,40.43
2023-01-08T05:19:32.348Z,40.20
2023-01-08T05:22:00.207Z,42.05
2023-01-08T05:24:27.865Z,39.38
2023-01-08T05:26:55.365Z,36.63
2023-01-08T05:29:23.226Z,39.97
2023-01-08T05:31:50.762Z,35.38
2023-01-08T05:34:18.342Z,40.45
2023-01-08T05:36:46.150Z,35.25
2023-01-08T05:39:13.972Z,30.60
2023-01-08T05:41:41.762Z,32.20
2023-01-08T05:44:10.268Z,31.52
2023-01-08T05:46:37.844Z,34.80
2023-01-08T05:49:05.508Z,34.30
2023-01-08T05:51:33.382Z,31.60
2023-01-08T05:54:00.930Z,34.27
2023-01-08T05:56:28.524Z,32.78
2023-01-08T05:58:56.389Z,32.55
2023-01-08T06:01:23.923Z,35.08
2023-01-08T06:03:55.527Z,31.45
2023-01-08T06:06:26.147Z,32.13
2023-01-08T06:08:54.043Z,32.28
2023-01-08T06:11:21.566Z,30.27
2023-01-08T06:13:49.164Z,31.52
2023-01-08T06:16:17.701Z,36.95
2023-01-08T06:18:46.113Z,34.97
2023-01-08T06:21:13.766Z,32.40
2023-01-08T06:23:41.592Z,33.38
2023-01-08T06:26:09.143Z,31.42
2023-01-08T06:28:36.637Z,32.40
2023-01-08T06:31:04.900Z,37.60
2023-01-08T06:33:32.942Z,33.60
2023-01-08T06:36:05.009Z,35.60
2023-01-08T06:38:36.650Z,36.33
2023-01-08T06:41:10.018Z,37.42
2023-01-08T06:43:38.737Z,36.77
2023-01-08T06:46:08.046Z,32.65
2023-01-08T06:48:37.157Z,37.83
2023-01-08T06:51:06.294Z,36.15
2023-01-08T06:53:34.164Z,36.08
2023-01-08T06:56:03.513Z,35.17
2023-01-08T06:58:31.905Z,38.88
2023-01-08T07:00:59.668Z,36.22
2023-01-08T07:03:27.399Z,35.78
2023-01-08T07:05:56.298Z,37.42
2023-01-08T07:08:24.123Z,31.07
2023-01-08T07:10:51.675Z,36.03
2023-01-08T07:13:19.609Z,35.58
2023-01-08T07:15:47.244Z,37.00
2023-01-08T07:18:14.804Z,35.28
2023-01-08T07:20:42.594Z,34.60
2023-01-08T07:23:11.978Z,34.13
2023-01-08T07:25:39.656Z,33.38
2023-01-08T07:28:11.785Z,37.20
2023-01-08T07:30:39.444Z,35.53
2023-01-08T07:33:07.379Z,34.73
2023-01-08T07:35:35.652Z,35.95
2023-01-08T07:38:03.179Z,32.63
2023-01-08T07:40:31.937Z,39.83
2023-01-08T07:43:01.591Z,34.35
2023-01-08T07:45:29.968Z,35.23
2023-01-08T07:47:58.932Z,35.30
2023-01-08T07:50:27.303Z,31.87
2023-01-08T07:53:01.754Z,33.53
2023-01-08T07:55:30.562Z,31.85
2023-01-08T07:57:58.242Z,30.70
2023-01-08T08:00:26.452Z,31.15
2023-01-08T08:02:55.069Z,31.23
2023-01-08T08:05:22.679Z,29.55
2023-01-08T08:07:50.734Z,33.22
2023-01-08T08:10:18.622Z,30.83
2023-01-08T08:12:46.168Z,32.55
2023-01-08T08:15:13.742Z,33.20
2023-01-08T08:17:45.578Z,29.63
2023-01-08T08:20:13.803Z,29.00
2023-01-08T08:22:41.812Z,32.70
2023-01-08T08:25:09.604Z,31.67
2023-01-08T08:27:37.257Z,31.80
2023-01-08T08:30:05.905Z,30.70
2023-01-08T08:32:33.973Z,30.15
2023-01-08T08:35:02.384Z,30.67
2023-01-08T08:37:30.387Z,31.40
2023-01-08T08:39:57.874Z,28.98
2023-01-08T08:42:26.121Z,29.23
2023-01-08T08:44:53.988Z,29.35
2023-01-08T08:47:21.632Z,31.37
2023-01-08T08:49:49.219Z,29.48
2023-01-08T08:52:17.102Z,30.50
2023-01-08T08:54:45.207Z,32.15
2023-01-08T08:57:12.871Z,28.98
2023-01-08T08:59:40.805Z,28.87
2023-01-08T09:02:10.422Z,28.55
2023-01-08T09:04:38.214Z,29.92
2023-01-08T09:07:06.146Z,30.85
2023-01-08T09:09:33.782Z,30.88
2023-01-08T09:12:01.773Z,27.87
2023-01-08T09:14:29.584Z,30.75
2023-01-08T09:16:57.204Z,28.27
2023-01-08T09:19:24.742Z,28.67
2023-01-08T09:21:52.624Z,28.40
2023-01-08T09:24:20.459Z,24.80
2023-01-08T09:26:48.122Z,28.25
2023-01-08T09:29:16.385Z,30.37
2023-01-08T09:31:43.987Z,26.80
2023-01-08T09:34:12.581Z,27.73
2023-01-08T09:36:40.511Z,31.47
2023-01-08T09:39:08.065Z,25.80
2023-01-08T09:41:38.312Z,25.77
2023-01-08T09:44:06.679Z,26.08
2023-01-08T09:46:34.763Z,25.70
2023-01-08T09:49:06.205Z,27.07
2023-01-08T09:51:35.614Z,24.95
2023-01-08T09:54:04.482Z,27.52
2023-01-08T09:56:33.748Z,23.75
2023-01-08T09:59:03.246Z,20.80
2023-01-08T10:01:35.675Z,23.20
2023-01-08T10:04:18.912Z,22.90
2023-01-08T10:06:52.837Z,22.40
2023-01-08T10:09:29.782Z,20.00
2023-01-08T10:12:02.391Z,23.60
2023-01-08T10:14:33.014Z,22.37
2023-01-08T10:17:05.814Z,20.75
2023-01-08T10:19:37.357Z,22.35
2023-01-08T10:22:12.417Z,20.08
2023-01-08T10:24:40.306Z,21.15
2023-01-08T10:27:17.736Z,21.07
2023-01-08T10:29:46.772Z,19.87
2023-01-08T10:32:29.388Z,20.60
2023-01-08T10:34:58.014Z,20.73
2023-01-08T10:37:31.956Z,19.62
2023-01-08T10:40:29.616Z,19.60
2023-01-08T10:43:04.894Z,19.90
2023-01-08T10:45:33.038Z,22.30
2023-01-08T10:48:02.408Z,22.02
2023-01-08T10:50:32.301Z,20.02
2023-01-08T10:53:06.295Z,19.43
2023-01-08T10:55:37.435Z,18.65
2023-01-08T10:58:14.905Z,22.83
2023-01-08T11:00:45.454Z,24.15
2023-01-08T11:03:28.692Z,17.75
2023-01-08T11:05:56.337Z,20.17
2023-01-08T11:08:24.919Z,20.00
2023-01-08T11:10:54.476Z,18.55
2023-01-08T11:13:22.712Z,19.90
2023-01-08T11:16:06.098Z,19.80
2023-01-08T11:18:47.054Z,15.27
2023-01-08T11:21:30.904Z,17.62
2023-01-08T11:24:21.625Z,18.05
2023-01-08T11:26:53.457Z,19.80
2023-01-08T11:29:51.479Z,20.40
2023-01-08T11:32:25.630Z,19.90
2023-01-08T11:35:05.117Z,18.30
2023-01-08T11:37:39.459Z,15.85
2023-01-08T11:40:38.496Z,17.50
2023-01-08T11:43:27.588Z,17.90
2023-01-08T11:46:26.446Z,20.40
2023-01-08T11:49:09.653Z,18.90
2023-01-08T11:51:54.412Z,17.15
2023-01-08T11:54:28.421Z,19.87
2023-01-08T11:57:08.671Z,20.73
2023-01-08T12:00:07.635Z,18.27
2023-01-08T12:02:50.335Z,19.42
2023-01-08T12:05:42.607Z,20.20
2023-01-08T12:08:29.862Z,17.98
2023-01-08T12:11:22.206Z,18.83
2023-01-08T12:13:49.701Z,18.97
2023-01-08T12:16:23.707Z,17.65
2023-01-08T12:18:57.364Z,20.25
2023-01-08T12:21:28.157Z,17.33
2023-01-08T12:24:22.854Z,16.87
2023-01-08T12:27:10.434Z,17.80
2023-01-08T12:29:49.786Z,16.05
2023-01-08T12:32:23.572Z,19.62
2023-01-08T12:35:11.607Z,19.92
2023-01-08T12:37:52.098Z,16.77
2023-01-08T12:40:36.532Z,20.23
2023-01-08T12:43:09.386Z,18.83
2023-01-08T12:45:41.189Z,18.42
2023-01-08T12:48:23.891Z,18.00
2023-01-08T12:51:11.064Z,19.50
2023-01-08T12:53:55.655Z,18.03
2023-01-08T12:56:35.275Z,25.58
2023-01-08T12:59:06.217Z,22.05
2023-01-08T13:01:42.320Z,19.75
2023-01-08T13:04:11.781Z,20.00
2023-01-08T13:07:09.853Z,21.87
2023-01-08T13:09:37.865Z,22.80
2023-01-08T13:12:05.726Z,22.60
2023-01-08T13:14:44.247Z,17.80
2023-01-08T13:17:21.366Z,21.48
2023-01-08T13:19:54.312Z,19.57
2023-01-08T13:22:30.641Z,19.40
2023-01-08T13:25:19.952Z,20.52
2023-01-08T13:27:48.164Z,18.62
2023-01-08T13:30:40.605Z,18.92
2023-01-08T13:33:37.069Z,17.40
2023-01-08T13:36:17.775Z,22.67
2023-01-08T13:38:45.686Z,17.87
2023-01-08T13:41:31.709Z,18.48
2023-01-08T13:44:15.465Z,20.23
2023-01-08T13:46:44.197Z,19.73
2023-01-08T13:49:34.237Z,22.20
2023-01-08T13:52:01.961Z,19.45
2023-01-08T13:54:42.608Z,20.58
2023-01-08T13:57:18.754Z,22.05
2023-01-08T13:59:53.458Z,22.17
2023-01-08T14:02:27.632Z,21.35
2023-01-08T14:04:56.057Z,24.98
2023-01-08T14:07:24.072Z,17.83
2023-01-08T14:09:52.171Z,23.33
2023-01-08T14:12:24.175Z,20.03
2023-01-08T14:14:53.821Z,18.98
2023-01-08T14:17:25.783Z,19.65
2023-01-08T14:19:54.010Z,21.95
2023-01-08T14:22:33.129Z,20.17
2023-01-08T14:25:03.193Z,20.17
2023-01-08T14:27:31.837Z,21.12
2023-01-08T14:29:59.544Z,19.85
2023-01-08T14:32:29.745Z,22.05
2023-01-08T14:34:59.200Z,22.10
2023-01-08T14:37:26.795Z,23.27
2023-01-08T14:39:55.246Z,20.48
2023-01-08T14:42:50.065Z,21.85
2023-01-08T14:45:24.726Z,19.52
2023-01-08T14:47:55.991Z,20.40
2023-01-08T14:50:38.500Z,21.50
2023-01-08T14:53:32.705Z,22.30
2023-01-08T14:56:00.799Z,19.52
2023-01-08T14:58:30.999Z,17.52
2023-01-08T15:01:02.356Z,17.35
2023-01-08T15:03:33.553Z,21.83
2023-01-08T15:06:01.489Z,20.95
2023-01-08T15:08:41.257Z,20.27
2023-01-08T15:11:15.582Z,20.02
2023-01-08T15:13:43.158Z,22.83
2023-01-08T15:16:16.914Z,21.53
2023-01-08T15:18:50.403Z,17.80
2023-01-08T15:21:20.460Z,19.02
2023-01-08T15:23:54.759Z,20.50
2023-01-08T15:26:23.652Z,19.37
2023-01-08T15:28:53.128Z,17.80
2023-01-08T15:31:45.766Z,21.33
2023-01-08T15:34:13.983Z,18.40
2023-01-08T15:36:41.609Z,19.00
2023-01-08T15:39:09.415Z,20.17
2023-01-08T15:41:57.007Z,18.13
2023-01-08T15:44:25.437Z,18.10
2023-01-08T15:46:53.626Z,19.67
2023-01-08T15:49:21.387Z,20.20
2023-01-08T15:51:50.089Z,21.05
2023-01-08T15:54:19.878Z,18.83
2023-01-08T15:56:47.466Z,17.95
2023-01-08T15:59:15.064Z,17.67
2023-01-08T16:01:43.060Z,19.50
2023-01-08T16:04:11.075Z,15.15
2023-01-08T16:06:38.666Z,18.60
2023-01-08T16:09:06.276Z,16.65
2023-01-08T16:11:34.158Z,15.60
2023-01-08T16:14:01.704Z,16.48
2023-01-08T16:16:29.656Z,16.15
2023-01-08T16:18:59.030Z,16.17
2023-01-08T16:21:26.712Z,15.35
2023-01-08T16:23:54.316Z,14.95
2023-01-08T16:26:22.239Z,14.18
2023-01-08T16:28:49.824Z,14.68
2023-01-08T16:31:17.513Z,13.37
2023-01-08T16:33:45.556Z,19.70
2023-01-08T16:36:13.144Z,13.57
2023-01-08T16:38:40.919Z,18.35
2023-01-08T16:41:09.507Z,14.82
2023-01-08T16:43:41.311Z,16.27
2023-01-08T16:46:13.751Z,16.17
2023-01-08T16:48:42.529Z,13.95
2023-01-08T16:51:11.638Z,19.40
2023-01-08T16:53:39.661Z,16.67
2023-01-08T16:56:08.021Z,17.07
2023-01-08T16:58:36.618Z,13.80
2023-01-08T17:01:09.372Z,16.92
2023-01-08T17:03:37.670Z,15.65
2023-01-08T17:06:06.679Z,15.73
2023-01-08T17:08:39.775Z,15.83
2023-01-08T17:11:13.231Z,19.85
2023-01-08T17:13:41.577Z,17.08
2023-01-08T17:16:11.765Z,16.95
2023-01-08T17:18:39.800Z,22.65
2023-01-08T17:21:09.438Z,16.00
2023-01-08T17:23:38.538Z,14.65
2023-01-08T17:26:08.671Z,14.70
2023-01-08T17:28:37.857Z,17.12
2023-01-08T17:31:08.901Z,15.88
2023-01-08T17:33:40.492Z,16.60
2023-01-08T17:36:16.896Z,16.45
2023-01-08T17:38:46.770Z,22.13
2023-01-08T17:41:33.345Z,16.87
2023-01-08T17:44:01.195Z,14.43
2023-01-08T17:46:29.285Z,17.77
2023-01-08T17:48:57.077Z,19.73
2023-01-08T17:51:24.865Z,16.85
2023-01-08T17:53:53.033Z,16.33
2023-01-08T17:56:20.754Z,16.05
2023-01-08T17:58:50.187Z,17.00
2023-01-08T18:01:19.221Z,15.25
2023-01-08T18:03:47.314Z,18.52
2023-01-08T18:06:14.999Z,16.10
2023-01-08T18:08:42.729Z,17.62
2023-01-08T18:11:11.628Z,16.67
2023-01-08T18:13:39.256Z,19.20
2023-01-08T18:16:10.777Z,18.25
2023-01-08T18:18:39.372Z,18.30
2023-01-08T18:21:07.455Z,16.30
2023-01-08T18:23:35.226Z,15.03
2023-01-08T18:26:07.924Z,14.75
2023-01-08T18:28:36.219Z,14.45
2023-01-08T18:31:08.409Z,13.48
2023-01-08T18:33:36.879Z,14.23
2023-01-08T18:36:09.430Z,12.80
2023-01-08T18:38:38.949Z,11.93
2023-01-08T18:41:08.195Z,13.65
2023-01-08T18:43:36.742Z,14.77
2023-01-08T18:46:06.892Z,13.82
2023-01-08T18:48:35.400Z,13.43
2023-01-08T18:51:05.733Z,18.08
2023-01-08T18:53:33.672Z,15.10
2023-01-08T18:56:02.109Z,14.18
2023-01-08T18:58:29.997Z,15.73
2023-01-08T19:01:04.188Z,18.03
2023-01-08T19:03:32.598Z,15.82
2023-01-08T19:06:00.328Z,16.67
2023-01-08T19:08:28.060Z,15.45
2023-01-08T19:10:55.956Z,14.70
2023-01-08T19:13:23.779Z,14.37
2023-01-08T19:15:51.488Z,14.77
2023-01-08T19:18:21.351Z,15.27
2023-01-08T19:20:49.969Z,16.00
2023-01-08T19:23:18.152Z,15.40
2023-01-08T19:25:46.144Z,17.37
2023-01-08T19:28:13.717Z,15.75
2023-01-08T19:30:42.251Z,16.87
2023-01-08T19:33:10.581Z,16.17
2023-01-08T19:35:41.219Z,16.12
2023-01-08T19:38:08.744Z,17.13
2023-01-08T19:40:36.681Z,17.65
2023-01-08T19:43:22.493Z,15.63
2023-01-08T19:45:50.639Z,17.60
2023-01-08T19:48:18.253Z,16.83
2023-01-08T19:50:46.952Z,15.53
2023-01-08T19:53:15.409Z,16.33
2023-01-08T19:55:45.352Z,15.80
2023-01-08T19:58:12.989Z,17.70
2023-01-08T20:00:40.871Z,15.35
2023-01-08T20:03:10.245Z,17.43
2023-01-08T20:05:41.938Z,16.50
2023-01-08T20:08:09.986Z,17.37
2023-01-08T20:10:37.775Z,15.20
2023-01-08T20:13:06.969Z,17.45
2023-01-08T20:15:34.906Z,19.00
2023-01-08T20:18:02.721Z,17.77
2023-01-08T20:20:30.642Z,16.23
2023-01-08T20:22:58.680Z,13.95
2023-01-08T20:25:26.501Z,18.05
2023-01-08T20:27:54.631Z,16.77
2023-01-08T20:30:22.637Z,15.48
2023-01-08T20:35:23.331Z,15.85
2023-01-08T20:37:50.935Z,19.77
2023-01-08T20:40:18.544Z,20.87
2023-01-08T20:42:46.859Z,22.35
2023-01-08T20:45:15.039Z,23.48
2023-01-08T20:47:42.649Z,16.75
2023-01-08T20:50:19.399Z,16.48
2023-01-08T20:52:47.905Z,17.07
2023-01-08T20:55:17.527Z,23.60
2023-01-08T20:57:46.130Z,19.00
2023-01-08T21:00:14.109Z,16.08
2023-01-08T21:02:43.667Z,20.90
2023-01-08T21:05:11.241Z,16.03
2023-01-08T21:07:38.924Z,15.68
2023-01-08T21:10:07.470Z,15.10
2023-01-08T21:12:37.202Z,15.23
2023-01-08T21:15:05.106Z,15.65
2023-01-08T21:17:33.097Z,16.43
2023-01-08T21:20:00.745Z,16.98
2023-01-08T21:22:28.247Z,18.70
2023-01-08T21:24:56.240Z,14.45
2023-01-08T21:27:24.157Z,15.75
2023-01-08T21:29:52.365Z,14.43
2023-01-08T21:32:20.657Z,15.32
2023-01-08T21:34:48.277Z,20.02
2023-01-08T21:37:15.947Z,20.83
2023-01-08T21:39:43.843Z,21.05
2023-01-08T21:42:30.065Z,19.80
2023-01-08T21:45:16.502Z,15.52
2023-01-08T21:47:43.980Z,19.25
2023-01-08T21:50:11.861Z,19.48
2023-01-08T21:52:58.074Z,17.95
2023-01-08T21:55:25.928Z,22.80
2023-01-08T21:57:53.729Z,18.23
2023-01-08T22:00:21.463Z,17.77
2023-01-08T22:02:49.662Z,17.20
2023-01-08T22:05:17.272Z,19.65
2023-01-08T22:07:44.884Z,13.97
2023-01-08T22:10:21.614Z,13.15
2023-01-08T22:12:49.319Z,16.73
2023-01-08T22:15:17.289Z,14.95
2023-01-08T22:17:45.015Z,16.33
2023-01-08T22:20:13.239Z,16.37
2023-01-08T22:22:42.534Z,16.50
2023-01-08T22:25:10.197Z,16.00
2023-01-08T22:27:37.822Z,16.30
2023-01-08T22:30:08.456Z,16.98
2023-01-08T22:32:36.140Z,15.00
2023-01-08T22:35:03.707Z,15.50
2023-01-08T22:37:31.496Z,20.70
2023-01-08T22:40:00.151Z,23.95
2023-01-08T22:42:27.726Z,30.20
2023-01-08T22:44:55.549Z,22.50
2023-01-08T22:47:23.057Z,22.05
2023-01-08T22:49:50.604Z,19.85
2023-01-08T22:52:18.427Z,20.50
2023-01-08T22:54:45.989Z,21.17
2023-01-08T22:57:13.591Z,19.97
2023-01-08T22:59:41.502Z,17.00
2023-01-08T23:02:09.039Z,18.70
2023-01-08T23:04:36.545Z,19.92
2023-01-08T23:07:04.396Z,14.55
2023-01-08T23:09:31.961Z,15.73
2023-01-08T23:11:59.516Z,14.48
2023-01-08T23:14:27.300Z,15.90
2023-01-08T23:16:54.793Z,14.85
2023-01-08T23:19:22.387Z,17.62
2023-01-08T23:21:50.346Z,17.43
2023-01-08T23:24:17.982Z,16.23
2023-01-08T23:26:45.521Z,16.33
2023-01-08T23:29:13.481Z,14.73
2023-01-08T23:31:43.112Z,16.27
2023-01-08T23:34:10.796Z,19.80
2023-01-08T23:36:39.037Z,15.98
2023-01-08T23:39:06.822Z,16.10
2023-01-08T23:41:35.195Z,15.38
2023-01-08T23:44:08.482Z,16.55
2023-01-08T23:46:36.042Z,14.87
2023-01-08T23:49:04.974Z,14.45
2023-01-08T23:51:32.722Z,18.85
2023-01-08T23:54:00.281Z,16.12
2023-01-08T23:56:28.135Z,17.87
2023-01-08T23:58:57.258Z,13.53
